CES2768 ZUGY-ZLXN
Flight info
| Callsign | CES2768 |
|---|---|
| Flight time | N/A |
| Altitude | 38100 |
| Route | BIPIP3C BIPIP W179 IGNAK/K0874S1190 W179 WFX/K0870S1160 W179 OMBON W195 VIDEK/K0869S1190 W195 LAXAL/K0865S1160 W195 IGDOB W111 UPVOP UPV19A |
| Aircraft | B77W/H-SDE1E2E3FGHIJ2J3J4J5M1RWXY/LB1D1 |
Departure
| Time | 2026-04-26 02:43 |
|---|---|
| Airport | Guiyang Longdongbao International Airport (ZUGY) |
Arrival
| Time | N/A |
|---|---|
| Airport | Xining Caojiabao International Airport (ZLXN) |
| Time | Latitude | Longitude | Altitude | Speed | Heading |
|---|---|---|---|---|---|
| 2026-04-26 02:39 | 26.55177 | 106.80380 | 3744 ft | 0 kts | 190° |
| 2026-04-26 02:42 | 26.55141 | 106.80373 | 3744 ft | 29 kts | 190° |
| 2026-04-26 02:42 | 26.54594 | 106.80267 | 3728 ft | 127 kts | 189° |
| 2026-04-26 02:43 | 26.52105 | 106.79799 | 4593 ft | 196 kts | 187° |
| 2026-04-26 02:43 | 26.50624 | 106.79739 | 5175 ft | 228 kts | 183° |
| 2026-04-26 02:43 | 26.48977 | 106.79546 | 5904 ft | 245 kts | 189° |
| 2026-04-26 02:44 | 26.47301 | 106.79233 | 6578 ft | 248 kts | 190° |
| 2026-04-26 02:44 | 26.45594 | 106.78896 | 7243 ft | 251 kts | 191° |
| 2026-04-26 02:44 | 26.43864 | 106.78557 | 7905 ft | 260 kts | 192° |
| 2026-04-26 02:44 | 26.42070 | 106.78207 | 8573 ft | 268 kts | 192° |
| 2026-04-26 02:45 | 26.40297 | 106.77581 | 9217 ft | 268 kts | 212° |
| 2026-04-26 02:45 | 26.38892 | 106.76243 | 9845 ft | 268 kts | 234° |
| 2026-04-26 02:45 | 26.38075 | 106.74360 | 10477 ft | 273 kts | 256° |
| 2026-04-26 02:45 | 26.38040 | 106.72259 | 11093 ft | 281 kts | 280° |
| 2026-04-26 02:46 | 26.38788 | 106.70248 | 11706 ft | 288 kts | 302° |
| 2026-04-26 02:46 | 26.40246 | 106.68668 | 12324 ft | 300 kts | 325° |
| 2026-04-26 02:46 | 26.42210 | 106.67696 | 12979 ft | 320 kts | 337° |
| 2026-04-26 02:46 | 26.44365 | 106.66845 | 13652 ft | 337 kts | 338° |
| 2026-04-26 02:47 | 26.46632 | 106.65966 | 14328 ft | 353 kts | 338° |
| 2026-04-26 02:47 | 26.49000 | 106.65050 | 15000 ft | 369 kts | 338° |
| 2026-04-26 02:47 | 26.51467 | 106.64097 | 15672 ft | 381 kts | 339° |
| 2026-04-26 02:47 | 26.53982 | 106.63126 | 16319 ft | 387 kts | 338° |
| 2026-04-26 02:48 | 26.56524 | 106.62144 | 16962 ft | 390 kts | 338° |
| 2026-04-26 02:48 | 26.59110 | 106.61144 | 17615 ft | 394 kts | 339° |
| 2026-04-26 02:48 | 26.61746 | 106.60126 | 18280 ft | 398 kts | 338° |
| 2026-04-26 02:48 | 26.64356 | 106.59117 | 18927 ft | 401 kts | 338° |
| 2026-04-26 02:49 | 26.67018 | 106.58087 | 19591 ft | 405 kts | 338° |
| 2026-04-26 02:49 | 26.69702 | 106.57048 | 20254 ft | 408 kts | 338° |
| 2026-04-26 02:49 | 26.72392 | 106.56007 | 20913 ft | 413 kts | 338° |
| 2026-04-26 02:49 | 26.75103 | 106.54957 | 21574 ft | 415 kts | 338° |
| 2026-04-26 02:50 | 26.77889 | 106.53876 | 22249 ft | 421 kts | 338° |
| 2026-04-26 02:50 | 26.80653 | 106.52805 | 22912 ft | 425 kts | 338° |
| 2026-04-26 02:50 | 26.83467 | 106.51712 | 23585 ft | 428 kts | 338° |
| 2026-04-26 02:50 | 26.86288 | 106.50617 | 24255 ft | 431 kts | 338° |
| 2026-04-26 02:51 | 26.89114 | 106.49520 | 24925 ft | 435 kts | 338° |
| 2026-04-26 02:51 | 26.91998 | 106.48399 | 25604 ft | 439 kts | 339° |
| 2026-04-26 02:51 | 26.94882 | 106.47279 | 26277 ft | 444 kts | 339° |
| 2026-04-26 02:51 | 26.97817 | 106.46137 | 26955 ft | 448 kts | 339° |
| 2026-04-26 02:52 | 27.00790 | 106.44981 | 27636 ft | 453 kts | 339° |
| 2026-04-26 02:52 | 27.03770 | 106.43820 | 28311 ft | 458 kts | 339° |
| 2026-04-26 02:52 | 27.06783 | 106.42647 | 28992 ft | 462 kts | 339° |
| 2026-04-26 02:52 | 27.09814 | 106.41466 | 29688 ft | 465 kts | 339° |
| 2026-04-26 02:53 | 27.12889 | 106.40269 | 30396 ft | 468 kts | 339° |
| 2026-04-26 02:53 | 27.15995 | 106.39056 | 31106 ft | 471 kts | 338° |
| 2026-04-26 02:53 | 27.18972 | 106.37605 | 31811 ft | 470 kts | 329° |
| 2026-04-26 02:53 | 27.21726 | 106.35651 | 32520 ft | 468 kts | 321° |
| 2026-04-26 02:54 | 27.24236 | 106.33332 | 33241 ft | 467 kts | 317° |
| 2026-04-26 02:54 | 27.26719 | 106.30922 | 34037 ft | 467 kts | 317° |
| 2026-04-26 02:54 | 27.29139 | 106.28564 | 34814 ft | 466 kts | 317° |
| 2026-04-26 02:54 | 27.31613 | 106.26151 | 35616 ft | 464 kts | 317° |
| 2026-04-26 02:55 | 27.34035 | 106.23789 | 36155 ft | 467 kts | 316° |
| 2026-04-26 02:55 | 27.36553 | 106.21332 | 36190 ft | 476 kts | 317° |
| 2026-04-26 02:55 | 27.41315 | 106.16682 | 36177 ft | 484 kts | 317° |
| 2026-04-26 02:56 | 27.46391 | 106.11720 | 36167 ft | 483 kts | 317° |
| 2026-04-26 02:56 | 27.51445 | 106.06774 | 36155 ft | 483 kts | 317° |
| 2026-04-26 02:57 | 27.56560 | 106.01761 | 36148 ft | 488 kts | 317° |
| 2026-04-26 02:57 | 27.61668 | 105.96750 | 36132 ft | 489 kts | 317° |
| 2026-04-26 02:58 | 27.66850 | 105.91659 | 36119 ft | 490 kts | 317° |
| 2026-04-26 02:58 | 27.71615 | 105.86204 | 36109 ft | 489 kts | 304° |
| 2026-04-26 02:59 | 27.74778 | 105.79375 | 36113 ft | 487 kts | 289° |
| 2026-04-26 02:59 | 27.76867 | 105.72092 | 36113 ft | 485 kts | 287° |
| 2026-04-26 03:00 | 27.78906 | 105.64812 | 36115 ft | 484 kts | 287° |
| 2026-04-26 03:00 | 27.81269 | 105.57723 | 36109 ft | 485 kts | 293° |
| 2026-04-26 03:01 | 27.83994 | 105.50711 | 36114 ft | 485 kts | 293° |
| 2026-04-26 03:01 | 27.86693 | 105.43748 | 36111 ft | 484 kts | 293° |
| 2026-04-26 03:02 | 27.89425 | 105.36779 | 36122 ft | 485 kts | 296° |
| 2026-04-26 03:02 | 27.92428 | 105.30103 | 36134 ft | 485 kts | 296° |
| 2026-04-26 03:03 | 27.95478 | 105.23328 | 36145 ft | 484 kts | 296° |
| 2026-04-26 03:03 | 27.99356 | 105.17208 | 36125 ft | 485 kts | 313° |
| 2026-04-26 03:04 | 28.04651 | 105.12639 | 36118 ft | 489 kts | 326° |
| 2026-04-26 03:04 | 28.10421 | 105.08615 | 36109 ft | 490 kts | 326° |
| 2026-04-26 03:05 | 28.16258 | 105.04546 | 36114 ft | 490 kts | 326° |
| 2026-04-26 03:05 | 28.21901 | 105.00600 | 36127 ft | 490 kts | 326° |
| 2026-04-26 03:06 | 28.27723 | 104.96523 | 36126 ft | 490 kts | 326° |
| 2026-04-26 03:06 | 28.33519 | 104.92458 | 36094 ft | 490 kts | 326° |
| 2026-04-26 03:07 | 28.39329 | 104.88376 | 36072 ft | 490 kts | 326° |
| 2026-04-26 03:07 | 28.45065 | 104.84367 | 36042 ft | 490 kts | 326° |
| 2026-04-26 03:08 | 28.50837 | 104.80332 | 36010 ft | 490 kts | 326° |
| 2026-04-26 03:08 | 28.56488 | 104.76376 | 36008 ft | 489 kts | 326° |
| 2026-04-26 03:09 | 28.62259 | 104.72330 | 36015 ft | 489 kts | 326° |
| 2026-04-26 03:09 | 28.65125 | 104.70319 | 36019 ft | 489 kts | 326° |